sensor_id;sensor_type;location;lat;lon;timestamp;pressure;altitude;pressure_sealevel;temperature;humidity
24962;BME280;12992;50.884;13.668;2023-11-22T00:00:39;97788.09;;;0.51;100.00
24962;BME280;12992;50.884;13.668;2023-11-22T00:03:05;97792.53;;;0.44;100.00
24962;BME280;12992;50.884;13.668;2023-11-22T00:05:30;97791.47;;;0.31;100.00
24962;BME280;12992;50.884;13.668;2023-11-22T00:07:55;97789.69;;;0.23;100.00
24962;BME280;12992;50.884;13.668;2023-11-22T00:10:22;97792.16;;;0.24;100.00
24962;BME280;12992;50.884;13.668;2023-11-22T00:12:48;97795.09;;;0.38;100.00
24962;BME280;12992;50.884;13.668;2023-11-22T00:15:14;97786.94;;;0.31;100.00
24962;BME280;12992;50.884;13.668;2023-11-22T00:17:45;97787.06;;;0.38;100.00
24962;BME280;12992;50.884;13.668;2023-11-22T00:20:11;97790.13;;;0.26;100.00
24962;BME280;12992;50.884;13.668;2023-11-22T00:22:36;97789.63;;;0.31;100.00
24962;BME280;12992;50.884;13.668;2023-11-22T00:25:02;97801.22;;;0.23;100.00
24962;BME280;12992;50.884;13.668;2023-11-22T00:27:29;97804.78;;;0.16;100.00
24962;BME280;12992;50.884;13.668;2023-11-22T00:29:58;97814.25;;;0.26;100.00
24962;BME280;12992;50.884;13.668;2023-11-22T00:32:24;97807.41;;;0.24;100.00
24962;BME280;12992;50.884;13.668;2023-11-22T00:34:49;97807.41;;;0.24;100.00
24962;BME280;12992;50.884;13.668;2023-11-22T00:37:15;97798.47;;;0.32;100.00
24962;BME280;12992;50.884;13.668;2023-11-22T00:39:41;97808.31;;;0.39;100.00
24962;BME280;12992;50.884;13.668;2023-11-22T00:42:07;97801.22;;;0.23;100.00
24962;BME280;12992;50.884;13.668;2023-11-22T00:44:32;97814.84;;;0.14;100.00
24962;BME280;12992;50.884;13.668;2023-11-22T00:46:58;97812.63;;;0.17;100.00
24962;BME280;12992;50.884;13.668;2023-11-22T00:49:23;97813.78;;;0.00;100.00
24962;BME280;12992;50.884;13.668;2023-11-22T00:51:49;97823.75;;;0.06;100.00
24962;BME280;12992;50.884;13.668;2023-11-22T00:54:16;97829.53;;;-0.05;100.00
24962;BME280;12992;50.884;13.668;2023-11-22T00:56:41;97841.91;;;-0.04;100.00
24962;BME280;12992;50.884;13.668;2023-11-22T00:59:06;97835.06;;;-0.07;100.00
24962;BME280;12992;50.884;13.668;2023-11-22T01:01:32;97833.34;;;0.01;100.00
24962;BME280;12992;50.884;13.668;2023-11-22T01:03:57;97840.88;;;-0.03;100.00
24962;BME280;12992;50.884;13.668;2023-11-22T01:06:23;97852.75;;;0.03;100.00
24962;BME280;12992;50.884;13.668;2023-11-22T01:08:48;97849.91;;;0.04;100.00
24962;BME280;12992;50.884;13.668;2023-11-22T01:11:14;97841.31;;;0.09;100.00
24962;BME280;12992;50.884;13.668;2023-11-22T01:13:39;97849.91;;;0.04;100.00
24962;BME280;12992;50.884;13.668;2023-11-22T01:16:11;97861.06;;;0.08;100.00
24962;BME280;12992;50.884;13.668;2023-11-22T01:18:38;97867.84;;;-0.05;100.00
24962;BME280;12992;50.884;13.668;2023-11-22T01:21:04;97862.63;;;0.02;100.00
24962;BME280;12992;50.884;13.668;2023-11-22T01:23:31;97863.09;;;0.06;100.00
24962;BME280;12992;50.884;13.668;2023-11-22T01:25:59;97880.78;;;0.15;100.00
24962;BME280;12992;50.884;13.668;2023-11-22T01:28:26;97883.19;;;0.10;100.00
24962;BME280;12992;50.884;13.668;2023-11-22T01:30:53;97889.75;;;-0.01;100.00
24962;BME280;12992;50.884;13.668;2023-11-22T01:33:20;97891.63;;;-0.10;100.00
24962;BME280;12992;50.884;13.668;2023-11-22T01:35:45;97901.75;;;0.11;100.00
24962;BME280;12992;50.884;13.668;2023-11-22T01:38:11;97899.06;;;0.11;100.00
24962;BME280;12992;50.884;13.668;2023-11-22T01:40:45;97891.91;;;0.04;100.00
24962;BME280;12992;50.884;13.668;2023-11-22T01:43:16;97900.94;;;0.03;100.00
24962;BME280;12992;50.884;13.668;2023-11-22T01:45:42;97896.66;;;-0.07;100.00
24962;BME280;12992;50.884;13.668;2023-11-22T01:48:07;97909.91;;;-0.21;100.00
24962;BME280;12992;50.884;13.668;2023-11-22T01:50:37;97902.53;;;-0.19;100.00
24962;BME280;12992;50.884;13.668;2023-11-22T01:53:03;97895.69;;;-0.22;100.00
24962;BME280;12992;50.884;13.668;2023-11-22T01:55:29;97891.53;;;-0.24;100.00
24962;BME280;12992;50.884;13.668;2023-11-22T01:57:56;97901.84;;;-0.13;100.00
24962;BME280;12992;50.884;13.668;2023-11-22T02:00:23;97902.91;;;-0.22;100.00
24962;BME280;12992;50.884;13.668;2023-11-22T02:02:50;97900.84;;;-0.12;100.00
24962;BME280;12992;50.884;13.668;2023-11-22T02:05:16;97901.16;;;-0.07;100.00
24962;BME280;12992;50.884;13.668;2023-11-22T02:07:41;97909.03;;;-0.06;100.00
24962;BME280;12992;50.884;13.668;2023-11-22T02:10:07;97907.72;;;-0.18;100.00
24962;BME280;12992;50.884;13.668;2023-11-22T02:12:33;97903.25;;;-0.25;100.00
24962;BME280;12992;50.884;13.668;2023-11-22T02:14:58;97917.28;;;-0.23;100.00
24962;BME280;12992;50.884;13.668;2023-11-22T02:17:24;97895.56;;;-0.37;100.00
24962;BME280;12992;50.884;13.668;2023-11-22T02:19:49;97904.91;;;-0.24;100.00
24962;BME280;12992;50.884;13.668;2023-11-22T02:22:15;97912.41;;;-0.20;100.00
24962;BME280;12992;50.884;13.668;2023-11-22T02:24:40;97910.53;;;-0.11;100.00
24962;BME280;12992;50.884;13.668;2023-11-22T02:27:06;97919.94;;;-0.15;100.00
24962;BME280;12992;50.884;13.668;2023-11-22T02:29:31;97916.53;;;-0.09;100.00
24962;BME280;12992;50.884;13.668;2023-11-22T02:31:57;97920.41;;;-0.12;100.00
24962;BME280;12992;50.884;13.668;2023-11-22T02:34:22;97913.41;;;-0.21;100.00
24962;BME280;12992;50.884;13.668;2023-11-22T02:36:48;97933.50;;;-0.17;100.00
24962;BME280;12992;50.884;13.668;2023-11-22T02:39:14;97933.50;;;-0.17;100.00
24962;BME280;12992;50.884;13.668;2023-11-22T02:41:39;97938.69;;;-0.23;100.00
24962;BME280;12992;50.884;13.668;2023-11-22T02:44:05;97938.06;;;-0.34;100.00
24962;BME280;12992;50.884;13.668;2023-11-22T02:46:32;97937.72;;;-0.31;100.00
24962;BME280;12992;50.884;13.668;2023-11-22T02:48:58;97942.19;;;-0.15;100.00
24962;BME280;12992;50.884;13.668;2023-11-22T02:51:24;97946.00;;;-0.09;100.00
24962;BME280;12992;50.884;13.668;2023-11-22T02:53:51;97949.84;;;-0.12;100.00
24962;BME280;12992;50.884;13.668;2023-11-22T02:56:17;97955.88;;;-0.10;100.00
24962;BME280;12992;50.884;13.668;2023-11-22T02:58:42;97959.03;;;0.02;100.00
24962;BME280;12992;50.884;13.668;2023-11-22T03:01:08;97948.91;;;-0.27;100.00
24962;BME280;12992;50.884;13.668;2023-11-22T03:03:34;97951.63;;;-0.35;100.00
24962;BME280;12992;50.884;13.668;2023-11-22T03:06:00;97961.16;;;-0.33;100.00
24962;BME280;12992;50.884;13.668;2023-11-22T03:08:25;97967.78;;;-0.12;100.00
24962;BME280;12992;50.884;13.668;2023-11-22T03:10:50;97965.75;;;-0.10;100.00
24962;BME280;12992;50.884;13.668;2023-11-22T03:13:16;97953.19;;;-0.10;100.00
24962;BME280;12992;50.884;13.668;2023-11-22T03:15:42;97955.53;;;-0.07;100.00
24962;BME280;12992;50.884;13.668;2023-11-22T03:18:08;97954.38;;;-0.12;100.00
24962;BME280;12992;50.884;13.668;2023-11-22T03:20:33;97955.41;;;-0.13;100.00
24962;BME280;12992;50.884;13.668;2023-11-22T03:22:59;97943.09;;;-0.39;100.00
24962;BME280;12992;50.884;13.668;2023-11-22T03:25:27;97950.09;;;-0.30;100.00
24962;BME280;12992;50.884;13.668;2023-11-22T03:27:54;97956.78;;;-0.25;100.00
24962;BME280;12992;50.884;13.668;2023-11-22T03:30:19;97966.66;;;-0.26;100.00
24962;BME280;12992;50.884;13.668;2023-11-22T03:32:45;97970.47;;;-0.20;100.00
24962;BME280;12992;50.884;13.668;2023-11-22T03:35:10;97983.81;;;-0.12;100.00
24962;BME280;12992;50.884;13.668;2023-11-22T03:37:36;97982.00;;;-0.20;100.00
24962;BME280;12992;50.884;13.668;2023-11-22T03:40:02;97994.41;;;-0.27;100.00
24962;BME280;12992;50.884;13.668;2023-11-22T03:42:29;97990.59;;;-0.33;100.00
24962;BME280;12992;50.884;13.668;2023-11-22T03:44:54;97992.94;;;-0.46;100.00
24962;BME280;12992;50.884;13.668;2023-11-22T03:47:20;98009.16;;;-0.39;100.00
24962;BME280;12992;50.884;13.668;2023-11-22T03:49:45;98019.69;;;-0.46;100.00
24962;BME280;12992;50.884;13.668;2023-11-22T03:52:11;98020.88;;;-0.48;100.00
24962;BME280;12992;50.884;13.668;2023-11-22T03:54:37;98034.59;;;-0.43;100.00
24962;BME280;12992;50.884;13.668;2023-11-22T03:57:03;98040.78;;;-0.35;100.00
24962;BME280;12992;50.884;13.668;2023-11-22T03:59:29;98044.09;;;-0.24;100.00
24962;BME280;12992;50.884;13.668;2023-11-22T04:01:55;98040.41;;;-0.23;100.00
24962;BME280;12992;50.884;13.668;2023-11-22T04:04:20;98044.28;;;-0.26;100.00
24962;BME280;12992;50.884;13.668;2023-11-22T04:06:46;98042.91;;;-0.22;100.00
24962;BME280;12992;50.884;13.668;2023-11-22T04:09:11;98048.94;;;-0.20;100.00
24962;BME280;12992;50.884;13.668;2023-11-22T04:11:42;98045.75;;;-0.15;100.00
24962;BME280;12992;50.884;13.668;2023-11-22T04:14:07;98056.47;;;-0.15;100.00
24962;BME280;12992;50.884;13.668;2023-11-22T04:16:33;98057.50;;;-0.33;100.00
24962;BME280;12992;50.884;13.668;2023-11-22T04:18:58;98064.16;;;-0.37;100.00
24962;BME280;12992;50.884;13.668;2023-11-22T04:21:23;98064.34;;;-0.38;100.00
24962;BME280;12992;50.884;13.668;2023-11-22T04:23:49;98076.53;;;-0.28;100.00
24962;BME280;12992;50.884;13.668;2023-11-22T04:26:15;98080.38;;;-0.14;100.00
24962;BME280;12992;50.884;13.668;2023-11-22T04:28:41;98085.06;;;-0.16;100.00
24962;BME280;12992;50.884;13.668;2023-11-22T04:31:06;98093.94;;;-0.15;100.00
24962;BME280;12992;50.884;13.668;2023-11-22T04:33:34;98091.94;;;-0.30;100.00
24962;BME280;12992;50.884;13.668;2023-11-22T04:35:59;98102.97;;;-0.24;100.00
24962;BME280;12992;50.884;13.668;2023-11-22T04:38:25;98097.28;;;-0.30;100.00
24962;BME280;12992;50.884;13.668;2023-11-22T04:40:50;98092.63;;;-0.44;100.00
24962;BME280;12992;50.884;13.668;2023-11-22T04:43:15;98113.34;;;-0.30;100.00
24962;BME280;12992;50.884;13.668;2023-11-22T04:45:41;98122.03;;;-0.19;100.00
24962;BME280;12992;50.884;13.668;2023-11-22T04:48:06;98117.38;;;-0.25;100.00
24962;BME280;12992;50.884;13.668;2023-11-22T04:50:32;98112.34;;;-0.45;100.00
24962;BME280;12992;50.884;13.668;2023-11-22T04:52:57;98119.88;;;-0.32;100.00
24962;BME280;12992;50.884;13.668;2023-11-22T04:55:22;98118.88;;;-0.39;100.00
24962;BME280;12992;50.884;13.668;2023-11-22T04:57:49;98131.91;;;-0.44;100.00
24962;BME280;12992;50.884;13.668;2023-11-22T05:00:14;98123.72;;;-0.35;100.00
24962;BME280;12992;50.884;13.668;2023-11-22T05:02:40;98115.19;;;-0.46;100.00
24962;BME280;12992;50.884;13.668;2023-11-22T05:05:06;98114.03;;;-0.44;100.00
24962;BME280;12992;50.884;13.668;2023-11-22T05:07:32;98128.38;;;-0.45;100.00
24962;BME280;12992;50.884;13.668;2023-11-22T05:09:57;98136.28;;;-0.43;100.00
24962;BME280;12992;50.884;13.668;2023-11-22T05:12:22;98134.72;;;-0.54;100.00
24962;BME280;12992;50.884;13.668;2023-11-22T05:14:48;98150.63;;;-0.44;100.00
24962;BME280;12992;50.884;13.668;2023-11-22T05:17:13;98147.13;;;-0.45;100.00
24962;BME280;12992;50.884;13.668;2023-11-22T05:19:38;98160.50;;;-0.45;100.00
24962;BME280;12992;50.884;13.668;2023-11-22T05:22:04;98158.66;;;-0.61;100.00
24962;BME280;12992;50.884;13.668;2023-11-22T05:24:30;98148.09;;;-0.62;100.00
24962;BME280;12992;50.884;13.668;2023-11-22T05:26:55;98159.97;;;-0.65;100.00
24962;BME280;12992;50.884;13.668;2023-11-22T05:29:20;98153.63;;;-0.55;100.00
24962;BME280;12992;50.884;13.668;2023-11-22T05:31:47;98153.47;;;-0.54;100.00
24962;BME280;12992;50.884;13.668;2023-11-22T05:34:12;98140.75;;;-0.68;100.00
24962;BME280;12992;50.884;13.668;2023-11-22T05:36:38;98151.63;;;-0.62;100.00
24962;BME280;12992;50.884;13.668;2023-11-22T05:39:03;98153.44;;;-0.62;100.00
24962;BME280;12992;50.884;13.668;2023-11-22T05:41:29;98148.44;;;-0.65;100.00
24962;BME280;12992;50.884;13.668;2023-11-22T05:43:54;98152.47;;;-0.61;100.00
24962;BME280;12992;50.884;13.668;2023-11-22T05:46:21;98148.44;;;-0.65;100.00
24962;BME280;12992;50.884;13.668;2023-11-22T05:48:51;98149.56;;;-0.84;100.00
24962;BME280;12992;50.884;13.668;2023-11-22T05:51:16;98156.97;;;-0.70;100.00
24962;BME280;12992;50.884;13.668;2023-11-22T05:53:42;98159.81;;;-0.63;100.00
24962;BME280;12992;50.884;13.668;2023-11-22T05:56:07;98166.50;;;-0.67;100.00
24962;BME280;12992;50.884;13.668;2023-11-22T05:58:34;98174.53;;;-0.59;100.00
24962;BME280;12992;50.884;13.668;2023-11-22T06:01:06;98167.81;;;-0.63;100.00
24962;BME280;12992;50.884;13.668;2023-11-22T06:03:32;98162.97;;;-0.76;100.00
24962;BME280;12992;50.884;13.668;2023-11-22T06:05:58;98165.50;;;-0.66;100.00
24962;BME280;12992;50.884;13.668;2023-11-22T06:08:24;98169.50;;;-0.78;100.00
24962;BME280;12992;50.884;13.668;2023-11-22T06:10:49;98177.53;;;-0.70;100.00
24962;BME280;12992;50.884;13.668;2023-11-22T06:13:16;98179.88;;;-0.59;100.00
24962;BME280;12992;50.884;13.668;2023-11-22T06:15:42;98176.81;;;-0.80;100.00
24962;BME280;12992;50.884;13.668;2023-11-22T06:18:07;98188.03;;;-0.77;100.00
24962;BME280;12992;50.884;13.668;2023-11-22T06:20:33;98204.47;;;-0.55;100.00
24962;BME280;12992;50.884;13.668;2023-11-22T06:22:58;98197.41;;;-0.65;100.00
24962;BME280;12992;50.884;13.668;2023-11-22T06:25:24;98200.91;;;-0.72;100.00
24962;BME280;12992;50.884;13.668;2023-11-22T06:27:49;98195.19;;;-0.86;100.00
24962;BME280;12992;50.884;13.668;2023-11-22T06:30:15;98203.19;;;-0.94;100.00
24962;BME280;12992;50.884;13.668;2023-11-22T06:32:40;98216.91;;;-0.89;100.00
24962;BME280;12992;50.884;13.668;2023-11-22T06:35:09;98230.69;;;-0.67;100.00
24962;BME280;12992;50.884;13.668;2023-11-22T06:37:35;98230.97;;;-0.87;100.00
24962;BME280;12992;50.884;13.668;2023-11-22T06:40:00;98239.31;;;-0.81;100.00
24962;BME280;12992;50.884;13.668;2023-11-22T06:42:26;98240.34;;;-0.74;100.00
24962;BME280;12992;50.884;13.668;2023-11-22T06:44:52;98244.72;;;-0.73;100.00
24962;BME280;12992;50.884;13.668;2023-11-22T06:47:18;98246.09;;;-0.61;100.00
24962;BME280;12992;50.884;13.668;2023-11-22T06:49:44;98246.13;;;-0.45;100.00
24962;BME280;12992;50.884;13.668;2023-11-22T06:52:09;98243.44;;;-0.61;100.00
24962;BME280;12992;50.884;13.668;2023-11-22T06:54:35;98243.75;;;-0.56;100.00
24962;BME280;12992;50.884;13.668;2023-11-22T06:57:02;98250.16;;;-0.49;100.00
24962;BME280;12992;50.884;13.668;2023-11-22T06:59:28;98269.91;;;-0.42;100.00
24962;BME280;12992;50.884;13.668;2023-11-22T07:01:53;98290.81;;;-0.37;100.00
24962;BME280;12992;50.884;13.668;2023-11-22T07:04:19;98293.31;;;-0.44;100.00
24962;BME280;12992;50.884;13.668;2023-11-22T07:06:44;98288.97;;;-0.37;100.00
24962;BME280;12992;50.884;13.668;2023-11-22T07:09:10;98290.31;;;-0.41;100.00
24962;BME280;12992;50.884;13.668;2023-11-22T07:11:36;98285.41;;;-0.53;100.00
24962;BME280;12992;50.884;13.668;2023-11-22T07:14:04;98290.91;;;-0.55;100.00
24962;BME280;12992;50.884;13.668;2023-11-22T07:16:31;98282.56;;;-0.60;100.00
24962;BME280;12992;50.884;13.668;2023-11-22T07:18:57;98269.75;;;-0.82;100.00
24962;BME280;12992;50.884;13.668;2023-11-22T07:21:22;98266.47;;;-0.68;100.00
24962;BME280;12992;50.884;13.668;2023-11-22T07:23:47;98265.97;;;-0.64;100.00
24962;BME280;12992;50.884;13.668;2023-11-22T07:26:13;98278.22;;;-0.61;100.00
24962;BME280;12992;50.884;13.668;2023-11-22T07:28:41;98275.38;;;-0.60;100.00
24962;BME280;12992;50.884;13.668;2023-11-22T07:31:07;98270.38;;;-0.46;100.00
24962;BME280;12992;50.884;13.668;2023-11-22T07:33:33;98272.88;;;-0.45;100.00
24962;BME280;12992;50.884;13.668;2023-11-22T07:35:58;98257.28;;;-0.66;100.00
24962;BME280;12992;50.884;13.668;2023-11-22T07:38:24;98256.44;;;-0.66;100.00
24962;BME280;12992;50.884;13.668;2023-11-22T07:40:50;98271.00;;;-0.69;100.00
24962;BME280;12992;50.884;13.668;2023-11-22T07:43:16;98284.91;;;-0.57;100.00
24962;BME280;12992;50.884;13.668;2023-11-22T07:45:41;98291.31;;;-0.42;100.00
24962;BME280;12992;50.884;13.668;2023-11-22T07:48:10;98298.38;;;-0.33;100.00
24962;BME280;12992;50.884;13.668;2023-11-22T07:50:37;98311.44;;;-0.21;100.00
24962;BME280;12992;50.884;13.668;2023-11-22T07:53:03;98308.72;;;-0.30;100.00
24962;BME280;12992;50.884;13.668;2023-11-22T07:55:30;98319.78;;;-0.33;100.00
24962;BME280;12992;50.884;13.668;2023-11-22T07:57:55;98328.47;;;-0.31;100.00
24962;BME280;12992;50.884;13.668;2023-11-22T08:00:21;98333.03;;;-0.15;100.00
24962;BME280;12992;50.884;13.668;2023-11-22T08:02:47;98324.78;;;-0.30;100.00
24962;BME280;12992;50.884;13.668;2023-11-22T08:05:13;98330.63;;;-0.42;100.00
24962;BME280;12992;50.884;13.668;2023-11-22T08:07:41;98333.84;;;-0.65;100.00
24962;BME280;12992;50.884;13.668;2023-11-22T08:10:07;98343.81;;;-0.41;100.00
24962;BME280;12992;50.884;13.668;2023-11-22T08:12:45;98348.38;;;-0.33;100.00
24962;BME280;12992;50.884;13.668;2023-11-22T08:15:10;98353.41;;;-0.30;100.00
24962;BME280;12992;50.884;13.668;2023-11-22T08:17:38;98352.22;;;-0.28;100.00
24962;BME280;12992;50.884;13.668;2023-11-22T08:20:05;98355.47;;;-0.16;100.00
24962;BME280;12992;50.884;13.668;2023-11-22T08:22:32;98352.97;;;-0.17;100.00
24962;BME280;12992;50.884;13.668;2023-11-22T08:25:02;98346.44;;;-0.15;100.00
24962;BME280;12992;50.884;13.668;2023-11-22T08:27:28;98364.19;;;-0.06;100.00
24962;BME280;12992;50.884;13.668;2023-11-22T08:29:53;98353.81;;;-0.01;100.00
24962;BME280;12992;50.884;13.668;2023-11-22T08:32:19;98355.28;;;-0.14;100.00
24962;BME280;12992;50.884;13.668;2023-11-22T08:34:48;98348.56;;;-0.26;100.00
24962;BME280;12992;50.884;13.668;2023-11-22T08:37:14;98350.84;;;-0.40;100.00
24962;BME280;12992;50.884;13.668;2023-11-22T08:39:39;98357.53;;;-0.44;100.00
24962;BME280;12992;50.884;13.668;2023-11-22T08:42:04;98360.22;;;-0.36;100.00
24962;BME280;12992;50.884;13.668;2023-11-22T08:44:37;98354.63;;;-0.59;100.00
24962;BME280;12992;50.884;13.668;2023-11-22T08:47:03;98357.94;;;-0.65;100.00
24962;BME280;12992;50.884;13.668;2023-11-22T08:49:29;98366.50;;;-0.61;100.00
24962;BME280;12992;50.884;13.668;2023-11-22T08:51:54;98358.38;;;-0.77;100.00
24962;BME280;12992;50.884;13.668;2023-11-22T08:54:20;98364.78;;;-0.70;100.00
24962;BME280;12992;50.884;13.668;2023-11-22T08:56:45;98358.94;;;-0.66;100.00
24962;BME280;12992;50.884;13.668;2023-11-22T08:59:12;98366.03;;;-0.48;100.00
24962;BME280;12992;50.884;13.668;2023-11-22T09:01:38;98353.00;;;-0.51;100.00
24962;BME280;12992;50.884;13.668;2023-11-22T09:04:03;98352.13;;;-0.60;100.00
24962;BME280;12992;50.884;13.668;2023-11-22T09:06:29;98360.06;;;-0.42;100.00
24962;BME280;12992;50.884;13.668;2023-11-22T09:08:55;98360.94;;;-0.34;100.00
24962;BME280;12992;50.884;13.668;2023-11-22T09:11:20;98364.75;;;-0.36;100.00
24962;BME280;12992;50.884;13.668;2023-11-22T09:13:47;98368.66;;;-0.22;100.00
24962;BME280;12992;50.884;13.668;2023-11-22T09:16:13;98368.66;;;-0.22;100.00
24962;BME280;12992;50.884;13.668;2023-11-22T09:18:38;98368.50;;;-0.21;100.00
24962;BME280;12992;50.884;13.668;2023-11-22T09:21:03;98370.13;;;-0.28;100.00
24962;BME280;12992;50.884;13.668;2023-11-22T09:23:30;98366.84;;;-0.14;100.00
24962;BME280;12992;50.884;13.668;2023-11-22T09:25:55;98379.59;;;-0.08;100.00
24962;BME280;12992;50.884;13.668;2023-11-22T09:28:20;98371.13;;;-0.29;100.00
24962;BME280;12992;50.884;13.668;2023-11-22T09:30:46;98380.19;;;-0.22;100.00
24962;BME280;12992;50.884;13.668;2023-11-22T09:33:16;98384.91;;;-0.16;100.00
24962;BME280;12992;50.884;13.668;2023-11-22T09:35:43;98381.03;;;-0.21;100.00
24962;BME280;12992;50.884;13.668;2023-11-22T09:38:10;98376.31;;;-0.28;100.00
24962;BME280;12992;50.884;13.668;2023-11-22T09:40:42;98379.81;;;-0.27;100.00
24962;BME280;12992;50.884;13.668;2023-11-22T09:43:09;98385.63;;;-0.06;100.00
24962;BME280;12992;50.884;13.668;2023-11-22T09:45:35;98373.00;;;-0.21;100.00
24962;BME280;12992;50.884;13.668;2023-11-22T09:48:02;98379.28;;;-0.39;100.00
24962;BME280;12992;50.884;13.668;2023-11-22T09:50:42;98369.41;;;-0.38;100.00
24962;BME280;12992;50.884;13.668;2023-11-22T09:53:11;98374.66;;;-0.29;100.00
24962;BME280;12992;50.884;13.668;2023-11-22T09:55:41;98368.09;;;-0.42;100.00
24962;BME280;12992;50.884;13.668;2023-11-22T09:58:10;98369.22;;;-0.45;100.00
24962;BME280;12992;50.884;13.668;2023-11-22T10:00:38;98371.09;;;-0.37;100.00
24962;BME280;12992;50.884;13.668;2023-11-22T10:03:06;98378.72;;;-0.16;100.00
24962;BME280;12992;50.884;13.668;2023-11-22T10:05:31;98374.19;;;-0.24;100.00
24962;BME280;12992;50.884;13.668;2023-11-22T10:07:57;98368.66;;;-0.22;100.00
24962;BME280;12992;50.884;13.668;2023-11-22T10:10:22;98372.38;;;-0.15;100.00
24962;BME280;12992;50.884;13.668;2023-11-22T10:12:48;98363.34;;;-0.06;100.00
24962;BME280;12992;50.884;13.668;2023-11-22T10:15:15;98366.69;;;-0.04;100.00
24962;BME280;12992;50.884;13.668;2023-11-22T10:17:47;98372.78;;;0.22;100.00
24962;BME280;12992;50.884;13.668;2023-11-22T10:20:13;98374.81;;;0.20;100.00
24962;BME280;12992;50.884;13.668;2023-11-22T10:22:46;98379.81;;;0.23;100.00
24962;BME280;12992;50.884;13.668;2023-11-22T10:25:16;98386.16;;;0.06;100.00
24962;BME280;12992;50.884;13.668;2023-11-22T10:27:47;98382.47;;;0.07;100.00
24962;BME280;12992;50.884;13.668;2023-11-22T10:30:13;98367.59;;;0.13;100.00
24962;BME280;12992;50.884;13.668;2023-11-22T10:32:41;98362.41;;;0.11;100.00
24962;BME280;12992;50.884;13.668;2023-11-22T10:35:07;98370.47;;;0.27;100.00
24962;BME280;12992;50.884;13.668;2023-11-22T10:37:33;98361.72;;;0.09;100.00
24962;BME280;12992;50.884;13.668;2023-11-22T10:39:59;98366.59;;;0.22;100.00
24962;BME280;12992;50.884;13.668;2023-11-22T10:42:26;98357.56;;;0.23;100.00
24962;BME280;12992;50.884;13.668;2023-11-22T10:44:56;98344.63;;;-0.06;100.00
24962;BME280;12992;50.884;13.668;2023-11-22T10:47:26;98333.94;;;0.02;100.00
24962;BME280;12992;50.884;13.668;2023-11-22T10:49:52;98343.47;;;0.13;100.00
24962;BME280;12992;50.884;13.668;2023-11-22T10:52:18;98338.94;;;0.05;100.00
24962;BME280;12992;50.884;13.668;2023-11-22T10:54:50;98342.25;;;-0.09;100.00
24962;BME280;12992;50.884;13.668;2023-11-22T10:57:22;98353.00;;;0.07;100.00
24962;BME280;12992;50.884;13.668;2023-11-22T10:59:54;98346.78;;;-0.02;100.00
24962;BME280;12992;50.884;13.668;2023-11-22T11:02:21;98346.28;;;-0.05;100.00
24962;BME280;12992;50.884;13.668;2023-11-22T11:04:56;98345.25;;;-0.12;100.00
24962;BME280;12992;50.884;13.668;2023-11-22T11:07:26;98355.84;;;0.06;100.00
24962;BME280;12992;50.884;13.668;2023-11-22T11:09:56;98356.84;;;0.05;100.00
24962;BME280;12992;50.884;13.668;2023-11-22T11:12:23;98352.44;;;-0.13;100.00
24962;BME280;12992;50.884;13.668;2023-11-22T11:14:49;98365.88;;;-0.05;100.00
24962;BME280;12992;50.884;13.668;2023-11-22T11:17:16;98388.47;;;-0.07;100.00
24962;BME280;12992;50.884;13.668;2023-11-22T11:19:41;98392.75;;;-0.22;100.00
24962;BME280;12992;50.884;13.668;2023-11-22T11:22:08;98406.19;;;-0.06;100.00
24962;BME280;12992;50.884;13.668;2023-11-22T11:24:39;98429.03;;;0.14;100.00
24962;BME280;12992;50.884;13.668;2023-11-22T11:27:06;98422.00;;;0.13;100.00
24962;BME280;12992;50.884;13.668;2023-11-22T11:29:35;98417.97;;;0.17;100.00
24962;BME280;12992;50.884;13.668;2023-11-22T11:32:03;98415.50;;;0.24;100.00
24962;BME280;12992;50.884;13.668;2023-11-22T11:34:28;98421.00;;;0.22;100.00
24962;BME280;12992;50.884;13.668;2023-11-22T11:36:54;98415.47;;;0.16;100.00
24962;BME280;12992;50.884;13.668;2023-11-22T11:39:25;98411.63;;;0.18;100.00
24962;BME280;12992;50.884;13.668;2023-11-22T11:42:07;98413.66;;;0.24;100.00
24962;BME280;12992;50.884;13.668;2023-11-22T11:44:33;98392.31;;;-0.02;100.00
24962;BME280;12992;50.884;13.668;2023-11-22T11:46:58;98409.25;;;0.07;100.00
24962;BME280;12992;50.884;13.668;2023-11-22T11:49:23;98412.44;;;0.11;100.00
24962;BME280;12992;50.884;13.668;2023-11-22T11:51:50;98411.41;;;0.04;100.00
24962;BME280;12992;50.884;13.668;2023-11-22T11:54:16;98405.53;;;-0.08;100.00
24962;BME280;12992;50.884;13.668;2023-11-22T11:56:41;98406.22;;;0.02;100.00
24962;BME280;12992;50.884;13.668;2023-11-22T11:59:08;98406.56;;;0.07;100.00
24962;BME280;12992;50.884;13.668;2023-11-22T12:01:35;98405.03;;;-0.04;100.00
24962;BME280;12992;50.884;13.668;2023-11-22T12:04:01;98399.81;;;-0.13;100.00
24962;BME280;12992;50.884;13.668;2023-11-22T12:06:28;98394.47;;;-0.05;100.00
24962;BME280;12992;50.884;13.668;2023-11-22T12:08:54;98394.13;;;-0.10;100.00
24962;BME280;12992;50.884;13.668;2023-11-22T12:11:19;98396.53;;;0.01;100.00
24962;BME280;12992;50.884;13.668;2023-11-22T12:13:45;98402.50;;;-0.13;100.00
24962;BME280;12992;50.884;13.668;2023-11-22T12:16:15;98406.09;;;-0.31;100.00
24962;BME280;12992;50.884;13.668;2023-11-22T12:18:46;98410.50;;;-0.13;100.00
24962;BME280;12992;50.884;13.668;2023-11-22T12:21:13;98403.13;;;-0.19;100.00
24962;BME280;12992;50.884;13.668;2023-11-22T12:23:39;98389.41;;;-0.24;100.00
24962;BME280;12992;50.884;13.668;2023-11-22T12:26:09;98397.13;;;-0.13;100.00
24962;BME280;12992;50.884;13.668;2023-11-22T12:28:36;98395.50;;;-0.06;100.00
24962;BME280;12992;50.884;13.668;2023-11-22T12:33:35;98375.25;;;-0.01;100.00
24962;BME280;12992;50.884;13.668;2023-11-22T12:36:00;98373.72;;;-0.03;100.00
24962;BME280;12992;50.884;13.668;2023-11-22T12:38:27;98379.75;;;-0.01;100.00
24962;BME280;12992;50.884;13.668;2023-11-22T12:40:56;98387.66;;;0.09;100.00